sensor_id;sensor_type;location;lat;lon;timestamp;P1;durP1;ratioP1;P2;durP2;ratioP2
56637;SDS011;42507;51.982;20.140;2022-12-07T00:01:08;9.20;;;5.70;;
56637;SDS011;42507;51.982;20.140;2022-12-07T00:03:39;11.65;;;6.33;;
56637;SDS011;42507;51.982;20.140;2022-12-07T00:06:07;10.60;;;6.17;;
56637;SDS011;42507;51.982;20.140;2022-12-07T00:08:36;11.68;;;6.35;;
56637;SDS011;42507;51.982;20.140;2022-12-07T00:13:37;10.13;;;6.42;;
56637;SDS011;42507;51.982;20.140;2022-12-07T00:16:05;11.25;;;6.62;;
56637;SDS011;42507;51.982;20.140;2022-12-07T00:18:40;11.18;;;6.20;;
56637;SDS011;42507;51.982;20.140;2022-12-07T00:21:12;12.58;;;6.70;;
56637;SDS011;42507;51.982;20.140;2022-12-07T00:23:53;9.88;;;5.92;;
56637;SDS011;42507;51.982;20.140;2022-12-07T00:28:54;10.53;;;6.25;;
56637;SDS011;42507;51.982;20.140;2022-12-07T00:31:23;10.32;;;6.50;;
56637;SDS011;42507;51.982;20.140;2022-12-07T00:33:53;12.05;;;7.15;;
56637;SDS011;42507;51.982;20.140;2022-12-07T00:36:20;10.43;;;6.87;;
56637;SDS011;42507;51.982;20.140;2022-12-07T00:38:49;12.88;;;6.95;;
56637;SDS011;42507;51.982;20.140;2022-12-07T00:41:16;13.55;;;6.37;;
56637;SDS011;42507;51.982;20.140;2022-12-07T00:43:46;10.88;;;6.65;;
56637;SDS011;42507;51.982;20.140;2022-12-07T00:46:14;8.85;;;5.78;;
56637;SDS011;42507;51.982;20.140;2022-12-07T00:48:40;11.57;;;6.85;;
56637;SDS011;42507;51.982;20.140;2022-12-07T00:51:07;11.20;;;6.85;;
56637;SDS011;42507;51.982;20.140;2022-12-07T00:53:35;12.53;;;7.17;;
56637;SDS011;42507;51.982;20.140;2022-12-07T00:56:08;11.35;;;7.08;;
56637;SDS011;42507;51.982;20.140;2022-12-07T01:01:26;14.85;;;7.37;;
56637;SDS011;42507;51.982;20.140;2022-12-07T01:03:55;11.35;;;6.92;;
56637;SDS011;42507;51.982;20.140;2022-12-07T01:06:22;10.85;;;7.45;;
56637;SDS011;42507;51.982;20.140;2022-12-07T01:08:49;13.22;;;7.22;;
56637;SDS011;42507;51.982;20.140;2022-12-07T01:11:17;13.95;;;7.70;;
56637;SDS011;42507;51.982;20.140;2022-12-07T01:13:46;12.85;;;6.75;;
56637;SDS011;42507;51.982;20.140;2022-12-07T01:16:13;11.57;;;7.20;;
56637;SDS011;42507;51.982;20.140;2022-12-07T01:18:41;12.58;;;7.37;;
56637;SDS011;42507;51.982;20.140;2022-12-07T01:21:12;13.58;;;8.00;;
56637;SDS011;42507;51.982;20.140;2022-12-07T01:23:42;14.78;;;8.50;;
56637;SDS011;42507;51.982;20.140;2022-12-07T01:26:10;11.50;;;8.48;;
56637;SDS011;42507;51.982;20.140;2022-12-07T01:28:39;16.70;;;10.60;;
56637;SDS011;42507;51.982;20.140;2022-12-07T01:31:06;17.52;;;11.50;;
56637;SDS011;42507;51.982;20.140;2022-12-07T01:33:36;21.90;;;13.35;;
56637;SDS011;42507;51.982;20.140;2022-12-07T01:36:04;22.00;;;13.98;;
56637;SDS011;42507;51.982;20.140;2022-12-07T01:38:34;23.70;;;13.62;;
56637;SDS011;42507;51.982;20.140;2022-12-07T01:41:01;17.52;;;11.35;;
56637;SDS011;42507;51.982;20.140;2022-12-07T01:43:28;18.37;;;11.00;;
56637;SDS011;42507;51.982;20.140;2022-12-07T01:45:56;24.12;;;12.68;;
56637;SDS011;42507;51.982;20.140;2022-12-07T01:48:25;19.40;;;12.15;;
56637;SDS011;42507;51.982;20.140;2022-12-07T01:51:00;24.15;;;14.78;;
56637;SDS011;42507;51.982;20.140;2022-12-07T01:53:30;22.10;;;12.63;;
56637;SDS011;42507;51.982;20.140;2022-12-07T01:55:57;21.07;;;12.58;;
56637;SDS011;42507;51.982;20.140;2022-12-07T01:58:24;22.85;;;12.93;;
56637;SDS011;42507;51.982;20.140;2022-12-07T02:00:51;20.45;;;12.65;;
56637;SDS011;42507;51.982;20.140;2022-12-07T02:03:36;20.43;;;11.38;;
56637;SDS011;42507;51.982;20.140;2022-12-07T02:06:07;18.80;;;10.15;;
56637;SDS011;42507;51.982;20.140;2022-12-07T02:08:36;20.30;;;11.57;;
56637;SDS011;42507;51.982;20.140;2022-12-07T02:11:02;17.00;;;9.68;;
56637;SDS011;42507;51.982;20.140;2022-12-07T02:13:30;18.80;;;11.10;;
56637;SDS011;42507;51.982;20.140;2022-12-07T02:16:09;17.40;;;10.82;;
56637;SDS011;42507;51.982;20.140;2022-12-07T02:19:04;16.48;;;8.93;;
56637;SDS011;42507;51.982;20.140;2022-12-07T02:25:14;19.52;;;10.38;;
56637;SDS011;42507;51.982;20.140;2022-12-07T02:28:04;20.45;;;11.15;;
56637;SDS011;42507;51.982;20.140;2022-12-07T02:30:33;20.50;;;11.05;;
56637;SDS011;42507;51.982;20.140;2022-12-07T02:35:51;19.23;;;11.83;;
56637;SDS011;42507;51.982;20.140;2022-12-07T02:43:54;23.02;;;14.55;;
56637;SDS011;42507;51.982;20.140;2022-12-07T02:46:21;24.25;;;15.83;;
56637;SDS011;42507;51.982;20.140;2022-12-07T02:48:51;24.00;;;14.85;;
56637;SDS011;42507;51.982;20.140;2022-12-07T02:51:19;23.90;;;14.65;;
56637;SDS011;42507;51.982;20.140;2022-12-07T02:53:45;26.73;;;15.05;;
56637;SDS011;42507;51.982;20.140;2022-12-07T03:02:23;24.32;;;14.30;;
56637;SDS011;42507;51.982;20.140;2022-12-07T03:11:06;21.15;;;12.68;;
56637;SDS011;42507;51.982;20.140;2022-12-07T03:14:02;22.65;;;12.82;;
56637;SDS011;42507;51.982;20.140;2022-12-07T03:16:45;21.95;;;11.88;;
56637;SDS011;42507;51.982;20.140;2022-12-07T03:19:16;23.50;;;12.70;;
56637;SDS011;42507;51.982;20.140;2022-12-07T03:21:46;21.02;;;12.65;;
56637;SDS011;42507;51.982;20.140;2022-12-07T03:24:18;21.20;;;11.78;;
56637;SDS011;42507;51.982;20.140;2022-12-07T03:26:53;20.88;;;12.65;;
56637;SDS011;42507;51.982;20.140;2022-12-07T03:29:28;21.77;;;12.75;;
56637;SDS011;42507;51.982;20.140;2022-12-07T03:32:06;22.20;;;11.53;;
56637;SDS011;42507;51.982;20.140;2022-12-07T03:37:23;21.55;;;13.05;;
56637;SDS011;42507;51.982;20.140;2022-12-07T03:42:28;23.40;;;13.98;;
56637;SDS011;42507;51.982;20.140;2022-12-07T03:44:56;21.23;;;13.53;;
56637;SDS011;42507;51.982;20.140;2022-12-07T03:52:48;26.82;;;15.35;;
56637;SDS011;42507;51.982;20.140;2022-12-07T03:57:56;28.92;;;16.60;;
56637;SDS011;42507;51.982;20.140;2022-12-07T04:00:28;29.85;;;17.32;;
56637;SDS011;42507;51.982;20.140;2022-12-07T04:02:55;30.72;;;17.55;;
56637;SDS011;42507;51.982;20.140;2022-12-07T04:05:21;30.50;;;17.55;;
56637;SDS011;42507;51.982;20.140;2022-12-07T04:07:48;28.30;;;16.00;;
56637;SDS011;42507;51.982;20.140;2022-12-07T04:10:14;26.42;;;14.98;;
56637;SDS011;42507;51.982;20.140;2022-12-07T04:12:40;26.35;;;15.30;;
56637;SDS011;42507;51.982;20.140;2022-12-07T04:15:07;27.05;;;14.68;;
56637;SDS011;42507;51.982;20.140;2022-12-07T04:17:34;22.90;;;12.82;;
56637;SDS011;42507;51.982;20.140;2022-12-07T04:20:00;18.98;;;10.70;;
56637;SDS011;42507;51.982;20.140;2022-12-07T04:22:26;22.58;;;11.73;;
56637;SDS011;42507;51.982;20.140;2022-12-07T04:24:52;21.52;;;11.45;;
56637;SDS011;42507;51.982;20.140;2022-12-07T04:27:18;19.30;;;11.35;;
56637;SDS011;42507;51.982;20.140;2022-12-07T04:29:44;19.42;;;10.82;;
56637;SDS011;42507;51.982;20.140;2022-12-07T04:32:10;19.35;;;11.20;;
56637;SDS011;42507;51.982;20.140;2022-12-07T04:34:37;18.55;;;10.40;;
56637;SDS011;42507;51.982;20.140;2022-12-07T04:37:03;19.55;;;10.95;;
56637;SDS011;42507;51.982;20.140;2022-12-07T04:39:31;20.35;;;11.68;;
56637;SDS011;42507;51.982;20.140;2022-12-07T04:41:59;21.20;;;12.88;;
56637;SDS011;42507;51.982;20.140;2022-12-07T04:44:26;21.45;;;11.85;;
56637;SDS011;42507;51.982;20.140;2022-12-07T04:46:54;19.82;;;12.00;;
56637;SDS011;42507;51.982;20.140;2022-12-07T04:49:20;18.90;;;11.88;;
56637;SDS011;42507;51.982;20.140;2022-12-07T04:51:47;20.90;;;11.93;;
56637;SDS011;42507;51.982;20.140;2022-12-07T04:54:13;19.05;;;11.90;;
56637;SDS011;42507;51.982;20.140;2022-12-07T04:56:41;20.40;;;12.10;;
56637;SDS011;42507;51.982;20.140;2022-12-07T04:59:08;21.30;;;12.73;;
56637;SDS011;42507;51.982;20.140;2022-12-07T05:01:36;22.40;;;12.82;;
56637;SDS011;42507;51.982;20.140;2022-12-07T05:04:02;23.75;;;13.78;;
56637;SDS011;42507;51.982;20.140;2022-12-07T05:06:29;21.30;;;13.10;;
56637;SDS011;42507;51.982;20.140;2022-12-07T05:08:55;18.65;;;12.25;;
56637;SDS011;42507;51.982;20.140;2022-12-07T05:11:21;18.12;;;11.33;;
56637;SDS011;42507;51.982;20.140;2022-12-07T05:14:11;18.62;;;11.03;;
56637;SDS011;42507;51.982;20.140;2022-12-07T05:16:40;17.95;;;10.90;;
56637;SDS011;42507;51.982;20.140;2022-12-07T05:19:07;19.40;;;11.85;;
56637;SDS011;42507;51.982;20.140;2022-12-07T05:21:34;15.08;;;9.08;;
56637;SDS011;42507;51.982;20.140;2022-12-07T05:24:02;16.02;;;10.10;;
56637;SDS011;42507;51.982;20.140;2022-12-07T05:26:29;15.68;;;9.78;;
56637;SDS011;42507;51.982;20.140;2022-12-07T05:28:55;15.45;;;9.08;;
56637;SDS011;42507;51.982;20.140;2022-12-07T05:31:23;16.42;;;10.35;;
56637;SDS011;42507;51.982;20.140;2022-12-07T05:33:50;14.73;;;9.78;;
56637;SDS011;42507;51.982;20.140;2022-12-07T05:36:17;15.83;;;10.13;;
56637;SDS011;42507;51.982;20.140;2022-12-07T05:38:43;16.62;;;9.78;;
56637;SDS011;42507;51.982;20.140;2022-12-07T05:41:11;17.42;;;11.63;;
56637;SDS011;42507;51.982;20.140;2022-12-07T05:43:58;20.00;;;11.70;;
56637;SDS011;42507;51.982;20.140;2022-12-07T05:46:25;14.13;;;10.18;;
56637;SDS011;42507;51.982;20.140;2022-12-07T05:48:51;12.82;;;9.45;;
56637;SDS011;42507;51.982;20.140;2022-12-07T05:51:17;14.50;;;8.90;;
56637;SDS011;42507;51.982;20.140;2022-12-07T05:53:44;15.88;;;9.63;;
56637;SDS011;42507;51.982;20.140;2022-12-07T05:56:11;20.60;;;10.05;;
56637;SDS011;42507;51.982;20.140;2022-12-07T05:58:37;17.70;;;9.55;;
56637;SDS011;42507;51.982;20.140;2022-12-07T06:01:22;18.48;;;9.98;;
56637;SDS011;42507;51.982;20.140;2022-12-07T06:03:48;20.57;;;10.88;;
56637;SDS011;42507;51.982;20.140;2022-12-07T06:06:15;16.45;;;9.83;;
56637;SDS011;42507;51.982;20.140;2022-12-07T06:08:41;10.25;;;7.40;;
56637;SDS011;42507;51.982;20.140;2022-12-07T06:11:07;10.48;;;6.62;;
56637;SDS011;42507;51.982;20.140;2022-12-07T06:13:52;10.65;;;6.33;;
56637;SDS011;42507;51.982;20.140;2022-12-07T06:16:18;12.85;;;7.15;;
56637;SDS011;42507;51.982;20.140;2022-12-07T06:18:44;12.45;;;7.22;;
56637;SDS011;42507;51.982;20.140;2022-12-07T06:21:10;8.83;;;6.37;;
56637;SDS011;42507;51.982;20.140;2022-12-07T06:23:36;8.73;;;6.08;;
56637;SDS011;42507;51.982;20.140;2022-12-07T06:26:03;15.15;;;6.25;;
56637;SDS011;42507;51.982;20.140;2022-12-07T06:28:29;9.50;;;6.10;;
56637;SDS011;42507;51.982;20.140;2022-12-07T06:30:59;10.48;;;6.92;;
56637;SDS011;42507;51.982;20.140;2022-12-07T06:33:27;8.80;;;6.28;;
56637;SDS011;42507;51.982;20.140;2022-12-07T06:35:53;10.15;;;6.37;;
56637;SDS011;42507;51.982;20.140;2022-12-07T06:38:20;9.88;;;5.72;;
56637;SDS011;42507;51.982;20.140;2022-12-07T06:40:46;10.98;;;6.95;;
56637;SDS011;42507;51.982;20.140;2022-12-07T06:43:13;10.80;;;6.00;;
56637;SDS011;42507;51.982;20.140;2022-12-07T06:45:40;11.38;;;7.15;;
56637;SDS011;42507;51.982;20.140;2022-12-07T06:48:07;13.50;;;8.05;;
56637;SDS011;42507;51.982;20.140;2022-12-07T06:50:33;13.35;;;7.55;;
56637;SDS011;42507;51.982;20.140;2022-12-07T06:53:00;12.82;;;6.97;;
56637;SDS011;42507;51.982;20.140;2022-12-07T06:55:26;13.32;;;7.53;;
56637;SDS011;42507;51.982;20.140;2022-12-07T06:57:52;15.40;;;8.93;;
56637;SDS011;42507;51.982;20.140;2022-12-07T07:00:18;15.40;;;8.40;;
56637;SDS011;42507;51.982;20.140;2022-12-07T07:02:45;13.62;;;7.62;;
56637;SDS011;42507;51.982;20.140;2022-12-07T07:05:11;23.18;;;10.48;;
56637;SDS011;42507;51.982;20.140;2022-12-07T07:07:37;17.48;;;9.03;;
56637;SDS011;42507;51.982;20.140;2022-12-07T07:10:04;15.55;;;7.80;;
56637;SDS011;42507;51.982;20.140;2022-12-07T07:12:31;15.55;;;9.30;;
56637;SDS011;42507;51.982;20.140;2022-12-07T07:14:58;22.42;;;10.75;;
56637;SDS011;42507;51.982;20.140;2022-12-07T07:17:24;20.97;;;10.50;;
56637;SDS011;42507;51.982;20.140;2022-12-07T07:19:50;21.57;;;10.88;;
56637;SDS011;42507;51.982;20.140;2022-12-07T07:22:16;21.70;;;11.10;;
56637;SDS011;42507;51.982;20.140;2022-12-07T07:24:43;19.32;;;10.10;;
56637;SDS011;42507;51.982;20.140;2022-12-07T07:27:09;19.92;;;10.53;;
56637;SDS011;42507;51.982;20.140;2022-12-07T07:29:36;21.30;;;11.12;;
56637;SDS011;42507;51.982;20.140;2022-12-07T07:32:02;22.15;;;11.55;;
56637;SDS011;42507;51.982;20.140;2022-12-07T07:34:28;21.65;;;10.98;;
56637;SDS011;42507;51.982;20.140;2022-12-07T07:36:54;24.20;;;11.70;;
56637;SDS011;42507;51.982;20.140;2022-12-07T07:39:21;30.75;;;14.70;;
56637;SDS011;42507;51.982;20.140;2022-12-07T07:41:47;27.85;;;14.23;;
56637;SDS011;42507;51.982;20.140;2022-12-07T07:44:13;24.00;;;11.75;;
56637;SDS011;42507;51.982;20.140;2022-12-07T07:46:39;22.90;;;11.45;;
56637;SDS011;42507;51.982;20.140;2022-12-07T07:49:06;24.82;;;12.33;;
56637;SDS011;42507;51.982;20.140;2022-12-07T07:51:32;22.80;;;12.13;;
56637;SDS011;42507;51.982;20.140;2022-12-07T07:53:58;19.85;;;10.28;;
56637;SDS011;42507;51.982;20.140;2022-12-07T07:56:24;23.85;;;11.43;;
56637;SDS011;42507;51.982;20.140;2022-12-07T07:58:55;22.02;;;11.28;;
56637;SDS011;42507;51.982;20.140;2022-12-07T08:01:21;18.62;;;9.70;;
56637;SDS011;42507;51.982;20.140;2022-12-07T08:03:47;18.05;;;10.10;;
56637;SDS011;42507;51.982;20.140;2022-12-07T08:06:13;18.48;;;10.13;;
56637;SDS011;42507;51.982;20.140;2022-12-07T08:08:40;24.32;;;10.40;;
56637;SDS011;42507;51.982;20.140;2022-12-07T08:11:08;21.23;;;10.63;;
56637;SDS011;42507;51.982;20.140;2022-12-07T08:13:35;17.80;;;8.05;;
56637;SDS011;42507;51.982;20.140;2022-12-07T08:16:05;19.15;;;9.40;;
56637;SDS011;42507;51.982;20.140;2022-12-07T08:18:36;19.17;;;10.32;;
56637;SDS011;42507;51.982;20.140;2022-12-07T08:21:05;22.00;;;9.80;;
56637;SDS011;42507;51.982;20.140;2022-12-07T08:23:32;19.67;;;10.63;;
56637;SDS011;42507;51.982;20.140;2022-12-07T08:26:03;18.00;;;9.70;;
56637;SDS011;42507;51.982;20.140;2022-12-07T08:28:32;18.17;;;9.93;;
56637;SDS011;42507;51.982;20.140;2022-12-07T08:31:02;19.82;;;10.50;;
56637;SDS011;42507;51.982;20.140;2022-12-07T08:33:31;19.17;;;10.05;;
56637;SDS011;42507;51.982;20.140;2022-12-07T08:36:01;20.40;;;10.72;;
56637;SDS011;42507;51.982;20.140;2022-12-07T08:38:30;20.10;;;10.40;;
56637;SDS011;42507;51.982;20.140;2022-12-07T08:40:57;19.75;;;10.05;;
56637;SDS011;42507;51.982;20.140;2022-12-07T08:43:24;19.35;;;9.73;;
56637;SDS011;42507;51.982;20.140;2022-12-07T08:45:56;19.12;;;9.98;;
56637;SDS011;42507;51.982;20.140;2022-12-07T08:48:45;19.80;;;10.90;;
56637;SDS011;42507;51.982;20.140;2022-12-07T08:51:12;20.50;;;10.53;;
56637;SDS011;42507;51.982;20.140;2022-12-07T08:53:39;18.90;;;10.20;;
56637;SDS011;42507;51.982;20.140;2022-12-07T08:56:06;16.40;;;8.58;;
56637;SDS011;42507;51.982;20.140;2022-12-07T08:58:33;17.02;;;9.05;;
56637;SDS011;42507;51.982;20.140;2022-12-07T09:01:00;18.95;;;10.18;;
56637;SDS011;42507;51.982;20.140;2022-12-07T09:03:26;17.50;;;9.70;;
56637;SDS011;42507;51.982;20.140;2022-12-07T09:05:53;16.67;;;9.23;;
56637;SDS011;42507;51.982;20.140;2022-12-07T09:08:19;19.95;;;10.35;;
56637;SDS011;42507;51.982;20.140;2022-12-07T09:10:48;14.87;;;8.65;;
56637;SDS011;42507;51.982;20.140;2022-12-07T09:13:14;15.55;;;9.33;;
56637;SDS011;42507;51.982;20.140;2022-12-07T09:15:40;15.45;;;8.63;;
56637;SDS011;42507;51.982;20.140;2022-12-07T09:18:07;15.70;;;8.90;;
56637;SDS011;42507;51.982;20.140;2022-12-07T09:20:33;18.42;;;10.00;;
56637;SDS011;42507;51.982;20.140;2022-12-07T09:22:59;16.60;;;9.35;;
56637;SDS011;42507;51.982;20.140;2022-12-07T09:25:25;17.10;;;9.05;;
56637;SDS011;42507;51.982;20.140;2022-12-07T09:27:56;17.67;;;9.38;;
56637;SDS011;42507;51.982;20.140;2022-12-07T09:30:23;20.17;;;10.18;;
56637;SDS011;42507;51.982;20.140;2022-12-07T09:32:52;16.80;;;8.85;;
56637;SDS011;42507;51.982;20.140;2022-12-07T09:35:20;16.02;;;9.95;;
56637;SDS011;42507;51.982;20.140;2022-12-07T09:37:47;19.62;;;10.20;;
56637;SDS011;42507;51.982;20.140;2022-12-07T09:40:13;21.15;;;10.70;;
56637;SDS011;42507;51.982;20.140;2022-12-07T09:42:43;19.27;;;10.08;;
56637;SDS011;42507;51.982;20.140;2022-12-07T09:45:14;18.82;;;10.63;;
56637;SDS011;42507;51.982;20.140;2022-12-07T09:47:45;18.02;;;9.80;;
56637;SDS011;42507;51.982;20.140;2022-12-07T09:50:15;16.62;;;9.20;;
56637;SDS011;42507;51.982;20.140;2022-12-07T09:52:47;17.48;;;10.08;;
56637;SDS011;42507;51.982;20.140;2022-12-07T09:55:16;17.12;;;9.68;;
56637;SDS011;42507;51.982;20.140;2022-12-07T09:57:52;18.32;;;10.18;;
56637;SDS011;42507;51.982;20.140;2022-12-07T10:00:20;19.15;;;8.73;;
56637;SDS011;42507;51.982;20.140;2022-12-07T10:02:58;20.08;;;11.57;;
56637;SDS011;42507;51.982;20.140;2022-12-07T10:05:31;20.27;;;11.75;;
56637;SDS011;42507;51.982;20.140;2022-12-07T10:08:02;18.20;;;9.68;;
56637;SDS011;42507;51.982;20.140;2022-12-07T10:10:30;21.57;;;11.20;;
56637;SDS011;42507;51.982;20.140;2022-12-07T10:13:03;20.72;;;10.90;;
56637;SDS011;42507;51.982;20.140;2022-12-07T10:21:04;23.30;;;12.35;;
56637;SDS011;42507;51.982;20.140;2022-12-07T10:23:39;18.75;;;11.53;;
56637;SDS011;42507;51.982;20.140;2022-12-07T10:26:25;19.00;;;11.30;;
56637;SDS011;42507;51.982;20.140;2022-12-07T10:29:13;21.68;;;11.12;;
56637;SDS011;42507;51.982;20.140;2022-12-07T10:31:43;17.02;;;9.75;;
56637;SDS011;42507;51.982;20.140;2022-12-07T10:37:13;16.40;;;9.43;;
56637;SDS011;42507;51.982;20.140;2022-12-07T10:39:51;16.65;;;9.50;;
56637;SDS011;42507;51.982;20.140;2022-12-07T10:42:20;15.72;;;9.60;;
56637;SDS011;42507;51.982;20.140;2022-12-07T10:45:06;17.30;;;10.00;;
56637;SDS011;42507;51.982;20.140;2022-12-07T10:47:51;13.78;;;8.60;;
56637;SDS011;42507;51.982;20.140;2022-12-07T10:56:11;15.48;;;8.80;;
56637;SDS011;42507;51.982;20.140;2022-12-07T11:04:49;12.88;;;7.50;;
56637;SDS011;42507;51.982;20.140;2022-12-07T11:16:24;13.18;;;8.05;;
56637;SDS011;42507;51.982;20.140;2022-12-07T11:22:00;12.63;;;7.40;;
56637;SDS011;42507;51.982;20.140;2022-12-07T11:28:13;13.30;;;8.93;;
56637;SDS011;42507;51.982;20.140;2022-12-07T11:30:53;12.37;;;7.97;;
56637;SDS011;42507;51.982;20.140;2022-12-07T11:33:47;13.28;;;8.68;;
56637;SDS011;42507;51.982;20.140;2022-12-07T11:39:09;13.30;;;8.80;;
56637;SDS011;42507;51.982;20.140;2022-12-07T11:42:01;19.12;;;10.82;;
56637;SDS011;42507;51.982;20.140;2022-12-07T11:47:12;19.80;;;11.50;;
56637;SDS011;42507;51.982;20.140;2022-12-07T11:49:53;16.80;;;9.58;;
56637;SDS011;42507;51.982;20.140;2022-12-07T11:52:58;16.23;;;9.90;;
56637;SDS011;42507;51.982;20.140;2022-12-07T11:55:42;14.73;;;9.48;;
56637;SDS011;42507;51.982;20.140;2022-12-07T12:07:00;15.45;;;9.23;;
56637;SDS011;42507;51.982;20.140;2022-12-07T12:09:31;13.78;;;8.48;;
56637;SDS011;42507;51.982;20.140;2022-12-07T12:23:28;13.68;;;8.35;;
56637;SDS011;42507;51.982;20.140;2022-12-07T12:26:15;15.70;;;10.68;;
56637;SDS011;42507;51.982;20.140;2022-12-07T12:33:58;15.40;;;9.58;;
56637;SDS011;42507;51.982;20.140;2022-12-07T12:39:11;13.72;;;10.23;;
56637;SDS011;42507;51.982;20.140;2022-12-07T12:47:37;14.30;;;10.20;;
56637;SDS011;42507;51.982;20.140;2022-12-07T12:50:14;15.98;;;10.58;;
56637;SDS011;42507;51.982;20.140;2022-12-07T12:52:58;15.78;;;10.30;;
56637;SDS011;42507;51.982;20.140;2022-12-07T13:01:31;17.60;;;11.10;;
56637;SDS011;42507;51.982;20.140;2022-12-07T13:03:38;14.55;;;9.95;;
56637;SDS011;42507;51.982;20.140;2022-12-07T13:08:56;15.93;;;11.03;;
56637;SDS011;42507;51.982;20.140;2022-12-07T13:11:28;16.32;;;10.70;;
56637;SDS011;42507;51.982;20.140;2022-12-07T13:17:11;18.85;;;12.05;;
56637;SDS011;42507;51.982;20.140;2022-12-07T13:28:23;15.18;;;10.15;;
56637;SDS011;42507;51.982;20.140;2022-12-07T13:30:58;15.00;;;10.08;;
56637;SDS011;42507;51.982;20.140;2022-12-07T13:33:32;18.82;;;10.25;;
56637;SDS011;42507;51.982;20.140;2022-12-07T13:36:00;13.40;;;9.08;;
56637;SDS011;42507;51.982;20.140;2022-12-07T13:38:31;14.95;;;9.75;;
56637;SDS011;42507;51.982;20.140;2022-12-07T13:40:59;16.48;;;10.25;;
56637;SDS011;42507;51.982;20.140;2022-12-07T13:43:48;16.65;;;10.60;;
56637;SDS011;42507;51.982;20.140;2022-12-07T13:46:33;18.25;;;11.55;;
56637;SDS011;42507;51.982;20.140;2022-12-07T13:49:27;18.52;;;11.48;;
56637;SDS011;42507;51.982;20.140;2022-12-07T13:52:08;21.48;;;12.40;;
56637;SDS011;42507;51.982;20.140;2022-12-07T13:54:46;20.17;;;11.60;;
56637;SDS011;42507;51.982;20.140;2022-12-07T13:57:24;18.85;;;10.98;;
56637;SDS011;42507;51.982;20.140;2022-12-07T13:59:52;19.23;;;11.65;;
56637;SDS011;42507;51.982;20.140;2022-12-07T14:04:50;18.37;;;11.48;;
56637;SDS011;42507;51.982;20.140;2022-12-07T14:07:21;20.45;;;12.43;;
56637;SDS011;42507;51.982;20.140;2022-12-07T14:09:56;21.07;;;12.40;;
56637;SDS011;42507;51.982;20.140;2022-12-07T14:12:26;21.48;;;12.43;;
56637;SDS011;42507;51.982;20.140;2022-12-07T14:14:55;20.60;;;12.65;;
56637;SDS011;42507;51.982;20.140;2022-12-07T14:17:24;20.48;;;12.65;;
56637;SDS011;42507;51.982;20.140;2022-12-07T14:22:24;24.72;;;13.38;;
56637;SDS011;42507;51.982;20.140;2022-12-07T14:25:16;24.05;;;14.38;;
56637;SDS011;42507;51.982;20.140;2022-12-07T14:27:50;22.98;;;13.55;;
56637;SDS011;42507;51.982;20.140;2022-12-07T14:30:32;22.27;;;12.55;;
56637;SDS011;42507;51.982;20.140;2022-12-07T14:32:58;20.60;;;12.10;;
56637;SDS011;42507;51.982;20.140;2022-12-07T14:35:27;24.40;;;12.65;;
56637;SDS011;42507;51.982;20.140;2022-12-07T14:37:54;21.50;;;12.30;;
56637;SDS011;42507;51.982;20.140;2022-12-07T14:40:22;23.50;;;12.63;;
56637;SDS011;42507;51.982;20.140;2022-12-07T14:42:51;21.97;;;12.45;;
56637;SDS011;42507;51.982;20.140;2022-12-07T14:45:25;23.55;;;13.48;;
56637;SDS011;42507;51.982;20.140;2022-12-07T14:47:51;24.10;;;13.72;;
56637;SDS011;42507;51.982;20.140;2022-12-07T14:50:18;25.68;;;13.32;;
56637;SDS011;42507;51.982;20.140;2022-12-07T14:52:46;26.77;;;13.93;;
56637;SDS011;42507;51.982;20.140;2022-12-07T14:55:27;24.98;;;14.43;;
56637;SDS011;42507;51.982;20.140;2022-12-07T14:57:56;27.80;;;15.18;;
56637;SDS011;42507;51.982;20.140;2022-12-07T15:00:25;30.57;;;15.72;;
56637;SDS011;42507;51.982;20.140;2022-12-07T15:02:53;27.70;;;14.90;;
56637;SDS011;42507;51.982;20.140;2022-12-07T15:05:20;24.15;;;14.20;;
56637;SDS011;42507;51.982;20.140;2022-12-07T15:07:47;29.72;;;15.55;;
56637;SDS011;42507;51.982;20.140;2022-12-07T15:10:19;31.75;;;16.32;;
56637;SDS011;42507;51.982;20.140;2022-12-07T15:12:49;31.42;;;17.00;;
56637;SDS011;42507;51.982;20.140;2022-12-07T15:15:16;35.05;;;17.60;;
56637;SDS011;42507;51.982;20.140;2022-12-07T15:17:43;26.75;;;16.50;;
56637;SDS011;42507;51.982;20.140;2022-12-07T15:20:13;30.32;;;16.15;;
56637;SDS011;42507;51.982;20.140;2022-12-07T15:22:42;28.75;;;16.45;;
56637;SDS011;42507;51.982;20.140;2022-12-07T15:25:12;28.32;;;15.18;;
56637;SDS011;42507;51.982;20.140;2022-12-07T15:27:40;26.82;;;15.30;;
56637;SDS011;42507;51.982;20.140;2022-12-07T15:30:07;29.15;;;15.15;;
56637;SDS011;42507;51.982;20.140;2022-12-07T15:32:34;29.65;;;17.07;;
56637;SDS011;42507;51.982;20.140;2022-12-07T15:35:00;26.60;;;14.43;;
56637;SDS011;42507;51.982;20.140;2022-12-07T15:37:26;26.70;;;14.38;;
56637;SDS011;42507;51.982;20.140;2022-12-07T15:39:52;28.15;;;14.95;;
56637;SDS011;42507;51.982;20.140;2022-12-07T15:42:19;28.45;;;15.70;;
56637;SDS011;42507;51.982;20.140;2022-12-07T15:44:45;31.55;;;16.50;;
56637;SDS011;42507;51.982;20.140;2022-12-07T15:47:30;26.93;;;15.45;;
56637;SDS011;42507;51.982;20.140;2022-12-07T15:50:04;29.92;;;15.80;;
56637;SDS011;42507;51.982;20.140;2022-12-07T15:52:35;28.67;;;15.72;;
56637;SDS011;42507;51.982;20.140;2022-12-07T15:55:01;23.22;;;12.63;;
56637;SDS011;42507;51.982;20.140;2022-12-07T15:57:29;22.20;;;12.80;;
56637;SDS011;42507;51.982;20.140;2022-12-07T15:59:57;19.73;;;11.60;;
56637;SDS011;42507;51.982;20.140;2022-12-07T16:02:23;21.45;;;11.93;;
56637;SDS011;42507;51.982;20.140;2022-12-07T16:04:51;20.37;;;11.75;;
56637;SDS011;42507;51.982;20.140;2022-12-07T16:07:18;18.70;;;11.15;;
56637;SDS011;42507;51.982;20.140;2022-12-07T16:09:45;22.65;;;12.93;;
56637;SDS011;42507;51.982;20.140;2022-12-07T16:12:12;19.20;;;11.30;;
56637;SDS011;42507;51.982;20.140;2022-12-07T16:14:39;22.95;;;13.10;;
56637;SDS011;42507;51.982;20.140;2022-12-07T16:17:06;17.35;;;10.65;;
56637;SDS011;42507;51.982;20.140;2022-12-07T16:19:33;20.12;;;12.28;;
56637;SDS011;42507;51.982;20.140;2022-12-07T16:22:00;18.80;;;10.18;;
56637;SDS011;42507;51.982;20.140;2022-12-07T16:24:27;19.32;;;10.45;;
56637;SDS011;42507;51.982;20.140;2022-12-07T16:26:53;17.70;;;10.35;;
56637;SDS011;42507;51.982;20.140;2022-12-07T16:29:20;16.35;;;10.43;;
56637;SDS011;42507;51.982;20.140;2022-12-07T16:31:48;15.18;;;10.43;;
56637;SDS011;42507;51.982;20.140;2022-12-07T16:34:16;14.47;;;9.20;;
56637;SDS011;42507;51.982;20.140;2022-12-07T16:36:43;18.12;;;10.28;;
56637;SDS011;42507;51.982;20.140;2022-12-07T16:39:09;17.20;;;9.08;;
56637;SDS011;42507;51.982;20.140;2022-12-07T16:41:35;14.83;;;9.23;;
56637;SDS011;42507;51.982;20.140;2022-12-07T16:44:03;16.62;;;8.88;;
56637;SDS011;42507;51.982;20.140;2022-12-07T16:46:32;16.75;;;9.88;;
56637;SDS011;42507;51.982;20.140;2022-12-07T16:48:59;18.30;;;10.93;;
56637;SDS011;42507;51.982;20.140;2022-12-07T16:51:26;20.50;;;11.00;;
56637;SDS011;42507;51.982;20.140;2022-12-07T16:53:52;21.45;;;12.00;;
56637;SDS011;42507;51.982;20.140;2022-12-07T16:56:19;24.55;;;12.28;;